createdAt,value
2024-05-09T00:00:36.498Z,100.00
2024-05-09T00:03:06.774Z,100.00
2024-05-09T00:05:33.523Z,100.00
2024-05-09T00:08:01.348Z,100.00
2024-05-09T00:10:35.317Z,100.00
2024-05-09T00:13:05.566Z,100.00
2024-05-09T00:15:35.180Z,100.00
2024-05-09T00:18:03.738Z,100.00
2024-05-09T00:20:38.590Z,100.00
2024-05-09T00:23:09.012Z,100.00
2024-05-09T00:25:37.171Z,100.00
2024-05-09T00:28:06.302Z,100.00
2024-05-09T00:30:36.726Z,100.00
2024-05-09T00:33:08.887Z,100.00
2024-05-09T00:35:38.978Z,100.00
2024-05-09T00:38:06.376Z,100.00
2024-05-09T00:40:42.488Z,100.00
2024-05-09T00:43:11.725Z,100.00
2024-05-09T00:45:41.707Z,100.00
2024-05-09T00:48:11.609Z,100.00
2024-05-09T00:50:42.692Z,100.00
2024-05-09T00:53:14.896Z,100.00
2024-05-09T00:55:42.211Z,100.00
2024-05-09T00:58:11.958Z,100.00
2024-05-09T01:00:41.251Z,100.00
2024-05-09T01:03:10.983Z,100.00
2024-05-09T01:05:40.019Z,100.00
2024-05-09T01:08:08.419Z,100.00
2024-05-09T01:10:36.547Z,100.00
2024-05-09T01:13:04.650Z,100.00
2024-05-09T01:15:31.896Z,100.00
2024-05-09T01:18:04.658Z,100.00
2024-05-09T01:20:39.894Z,100.00
2024-05-09T01:23:11.759Z,100.00
2024-05-09T01:25:38.993Z,100.00
2024-05-09T01:28:06.435Z,100.00
2024-05-09T01:30:36.214Z,100.00
2024-05-09T01:33:09.596Z,100.00
2024-05-09T01:35:38.363Z,100.00
2024-05-09T01:38:05.279Z,100.00
2024-05-09T01:40:37.698Z,100.00
2024-05-09T01:43:09.555Z,100.00
2024-05-09T01:45:37.816Z,100.00
2024-05-09T01:48:05.157Z,100.00
2024-05-09T01:50:38.479Z,100.00
2024-05-09T01:53:12.756Z,100.00
2024-05-09T01:55:40.499Z,100.00
2024-05-09T01:58:07.744Z,100.00
2024-05-09T02:00:39.832Z,100.00
2024-05-09T02:03:12.653Z,100.00
2024-05-09T02:05:47.172Z,100.00
2024-05-09T02:08:19.699Z,100.00
2024-05-09T02:10:47.814Z,100.00
2024-05-09T02:13:15.073Z,100.00
2024-05-09T02:15:41.903Z,100.00
2024-05-09T02:18:09.092Z,100.00
2024-05-09T02:20:39.305Z,100.00
2024-05-09T02:23:07.090Z,100.00
2024-05-09T02:25:34.337Z,100.00
2024-05-09T02:28:03.819Z,100.00
2024-05-09T02:30:38.683Z,100.00
2024-05-09T02:33:13.232Z,100.00
2024-05-09T02:35:41.659Z,100.00
2024-05-09T02:38:10.156Z,100.00
2024-05-09T02:40:39.123Z,100.00
2024-05-09T02:43:08.055Z,100.00
2024-05-09T02:45:35.137Z,100.00
2024-05-09T02:48:02.314Z,100.00
2024-05-09T02:50:36.626Z,100.00
2024-05-09T02:53:10.198Z,100.00
2024-05-09T02:55:41.005Z,100.00
2024-05-09T02:58:08.234Z,100.00
2024-05-09T03:00:39.680Z,100.00
2024-05-09T03:03:11.423Z,100.00
2024-05-09T03:05:46.485Z,100.00
2024-05-09T03:08:15.863Z,100.00
2024-05-09T03:10:42.825Z,100.00
2024-05-09T03:13:15.449Z,100.00
2024-05-09T03:15:43.332Z,100.00
2024-05-09T03:18:10.222Z,100.00
2024-05-09T03:20:37.456Z,100.00
2024-05-09T03:23:08.152Z,100.00
2024-05-09T03:25:36.103Z,100.00
2024-05-09T03:28:03.617Z,100.00
2024-05-09T03:30:39.436Z,100.00
2024-05-09T03:33:14.126Z,100.00
2024-05-09T03:35:43.260Z,100.00
2024-05-09T03:38:10.133Z,100.00
2024-05-09T03:40:37.407Z,100.00
2024-05-09T03:43:04.238Z,100.00
2024-05-09T03:45:34.006Z,100.00
2024-05-09T03:48:01.043Z,100.00
2024-05-09T03:50:36.103Z,100.00
2024-05-09T03:53:09.899Z,100.00
2024-05-09T03:55:37.114Z,100.00
2024-05-09T03:58:09.782Z,100.00
2024-05-09T04:00:39.328Z,100.00
2024-05-09T04:03:11.178Z,100.00
2024-05-09T04:05:41.447Z,100.00
2024-05-09T04:08:09.777Z,100.00
2024-05-09T04:10:36.693Z,100.00
2024-05-09T04:13:06.552Z,100.00
2024-05-09T04:15:33.220Z,100.00
2024-05-09T04:18:02.346Z,100.00
2024-05-09T04:20:37.577Z,100.00
2024-05-09T04:23:08.806Z,100.00
2024-05-09T04:25:37.658Z,100.00
2024-05-09T04:28:05.015Z,100.00
2024-05-09T04:30:38.745Z,100.00
2024-05-09T04:33:10.738Z,100.00
2024-05-09T04:35:39.646Z,100.00
2024-05-09T04:38:06.831Z,100.00
2024-05-09T04:40:36.798Z,100.00
2024-05-09T04:43:14.237Z,100.00
2024-05-09T04:45:41.173Z,100.00
2024-05-09T04:48:08.770Z,100.00
2024-05-09T04:50:38.439Z,100.00
2024-05-09T04:53:09.797Z,100.00
2024-05-09T04:55:39.410Z,100.00
2024-05-09T04:58:10.215Z,100.00
2024-05-09T05:00:38.860Z,100.00
2024-05-09T05:03:23.154Z,100.00
2024-05-09T05:05:50.060Z,100.00
2024-05-09T05:08:18.771Z,100.00
2024-05-09T05:10:48.130Z,100.00
2024-05-09T05:13:19.097Z,100.00
2024-05-09T05:15:58.246Z,100.00
2024-05-09T05:18:26.108Z,100.00
2024-05-09T05:20:53.682Z,100.00
2024-05-09T05:23:21.890Z,100.00
2024-05-09T05:25:50.098Z,100.00
2024-05-09T05:28:17.367Z,100.00
2024-05-09T05:30:46.508Z,100.00
2024-05-09T05:33:14.921Z,100.00
2024-05-09T05:35:42.425Z,100.00
2024-05-09T05:38:13.048Z,100.00
2024-05-09T05:40:40.948Z,100.00
2024-05-09T05:43:10.189Z,100.00
2024-05-09T05:45:37.195Z,100.00
2024-05-09T05:48:06.084Z,100.00
2024-05-09T05:50:36.721Z,100.00
2024-05-09T05:53:09.731Z,100.00
2024-05-09T05:55:39.628Z,100.00
2024-05-09T05:58:10.729Z,100.00
2024-05-09T06:00:39.830Z,100.00
2024-05-09T06:03:09.054Z,100.00
2024-05-09T06:05:36.768Z,100.00
2024-05-09T06:08:03.659Z,100.00
2024-05-09T06:10:37.697Z,100.00
2024-05-09T06:13:06.953Z,100.00
2024-05-09T06:15:33.535Z,100.00
2024-05-09T06:18:00.584Z,100.00
2024-05-09T06:20:35.044Z,100.00
2024-05-09T06:23:05.115Z,100.00
2024-05-09T06:25:32.649Z,100.00
2024-05-09T06:28:01.271Z,100.00
2024-05-09T06:30:37.615Z,100.00
2024-05-09T06:33:08.996Z,100.00
2024-05-09T06:35:36.680Z,100.00
2024-05-09T06:38:03.693Z,100.00
2024-05-09T06:40:37.195Z,100.00
2024-05-09T06:43:13.294Z,100.00
2024-05-09T06:45:40.291Z,100.00
2024-05-09T06:48:08.634Z,100.00
2024-05-09T06:50:37.838Z,100.00
2024-05-09T06:53:06.211Z,100.00
2024-05-09T06:55:33.143Z,100.00
2024-05-09T06:57:59.719Z,100.00
2024-05-09T07:00:34.785Z,100.00
2024-05-09T07:03:15.281Z,100.00
2024-05-09T07:05:44.956Z,100.00
2024-05-09T07:08:13.029Z,100.00
2024-05-09T07:10:39.688Z,100.00
2024-05-09T07:13:10.225Z,100.00
2024-05-09T07:15:39.483Z,100.00
2024-05-09T07:18:14.576Z,100.00
2024-05-09T07:20:41.702Z,100.00
2024-05-09T07:23:09.448Z,100.00
2024-05-09T07:25:40.187Z,100.00
2024-05-09T07:28:11.088Z,100.00
2024-05-09T07:30:38.084Z,100.00
2024-05-09T07:33:05.962Z,100.00
2024-05-09T07:35:33.194Z,100.00
2024-05-09T07:38:00.008Z,100.00
2024-05-09T07:40:33.369Z,100.00
2024-05-09T07:43:05.053Z,100.00
2024-05-09T07:45:48.197Z,100.00
2024-05-09T07:52:38.598Z,100.00
2024-05-09T07:53:49.792Z,100.00
2024-05-09T07:56:21.985Z,100.00
2024-05-09T07:58:51.432Z,100.00
2024-05-09T08:01:18.568Z,100.00
2024-05-09T08:03:45.651Z,100.00
2024-05-09T08:06:12.437Z,100.00
2024-05-09T08:08:39.325Z,100.00
2024-05-09T08:11:06.043Z,100.00
2024-05-09T08:13:32.736Z,92.02
2024-05-09T08:15:59.943Z,100.00
2024-05-09T08:18:26.698Z,99.93
2024-05-09T08:20:53.421Z,93.14
2024-05-09T08:23:20.022Z,96.46
2024-05-09T08:25:46.626Z,95.24
2024-05-09T08:28:13.417Z,100.00
2024-05-09T08:30:40.376Z,96.36
2024-05-09T08:33:07.972Z,92.53
2024-05-09T08:35:35.411Z,88.60
2024-05-09T08:38:03.159Z,92.63
2024-05-09T08:40:35.019Z,90.90
2024-05-09T08:43:07.886Z,84.29
2024-05-09T08:45:35.994Z,85.60
2024-05-09T08:48:03.107Z,88.35
2024-05-09T08:50:36.581Z,83.86
2024-05-09T08:53:06.088Z,81.93
2024-05-09T08:55:33.731Z,82.46
2024-05-09T08:58:02.083Z,88.17
2024-05-09T09:00:36.526Z,87.79
2024-05-09T09:03:07.132Z,76.32
2024-05-09T09:05:38.660Z,81.94
2024-05-09T09:08:08.402Z,77.21
2024-05-09T09:10:35.695Z,75.49
2024-05-09T09:13:03.279Z,70.08
2024-05-09T09:15:30.346Z,72.55
2024-05-09T09:17:58.032Z,70.87
2024-05-09T09:20:35.380Z,72.70
2024-05-09T09:23:04.340Z,61.36
2024-05-09T09:25:31.740Z,64.44
2024-05-09T09:27:58.780Z,68.99
2024-05-09T09:30:36.314Z,64.66
2024-05-09T09:33:06.449Z,55.58
2024-05-09T09:35:34.079Z,53.28
2024-05-09T09:38:04.846Z,50.43
2024-05-09T09:40:40.715Z,53.75
2024-05-09T09:43:21.539Z,51.01
2024-05-09T09:45:50.174Z,54.87
2024-05-09T09:48:17.241Z,50.10
2024-05-09T09:50:44.915Z,53.37
2024-05-09T09:53:13.864Z,48.17
2024-05-09T09:55:42.116Z,49.75
2024-05-09T09:58:13.159Z,48.57
2024-05-09T10:00:41.632Z,45.57
2024-05-09T10:03:08.716Z,48.00
2024-05-09T10:05:36.097Z,46.20
2024-05-09T10:08:08.607Z,53.74
2024-05-09T10:10:35.872Z,54.14
2024-05-09T10:13:06.923Z,54.67
2024-05-09T10:15:50.654Z,49.35
2024-05-09T10:18:17.819Z,51.24
2024-05-09T10:20:45.416Z,49.39
2024-05-09T10:23:33.157Z,49.58
2024-05-09T10:26:04.485Z,45.10
2024-05-09T10:28:33.779Z,46.28
2024-05-09T10:31:15.812Z,43.25
2024-05-09T10:33:47.974Z,53.80
2024-05-09T10:36:20.922Z,51.06
2024-05-09T10:38:51.018Z,49.60
2024-05-09T10:41:18.828Z,48.47
2024-05-09T10:43:46.124Z,46.01
2024-05-09T10:46:13.202Z,46.87
2024-05-09T10:48:43.778Z,43.86
2024-05-09T10:51:12.886Z,50.39
2024-05-09T10:53:45.502Z,43.64
2024-05-09T10:56:14.692Z,43.73
2024-05-09T10:58:42.043Z,48.64
2024-05-09T11:01:09.426Z,43.60
2024-05-09T11:03:36.590Z,42.90
2024-05-09T11:06:03.725Z,43.52
2024-05-09T11:08:32.086Z,47.43
2024-05-09T11:10:59.988Z,46.89
2024-05-09T11:13:30.747Z,43.10
2024-05-09T11:15:58.516Z,41.70
2024-05-09T11:18:27.776Z,45.57
2024-05-09T11:20:58.808Z,42.09
2024-05-09T11:23:27.740Z,43.63
2024-05-09T11:25:58.788Z,42.02
2024-05-09T11:28:27.208Z,43.81
2024-05-09T11:31:07.704Z,42.68
2024-05-09T11:33:43.602Z,41.01
2024-05-09T11:36:10.952Z,43.76
2024-05-09T11:38:37.578Z,41.83
2024-05-09T11:41:05.196Z,36.90
2024-05-09T11:43:33.348Z,39.98
2024-05-09T11:46:00.891Z,38.23
2024-05-09T11:48:28.167Z,44.96
2024-05-09T11:50:56.388Z,40.83
2024-05-09T11:53:25.037Z,41.31
2024-05-09T11:55:52.159Z,40.37
2024-05-09T11:58:19.406Z,41.05
2024-05-09T12:00:47.112Z,41.30
2024-05-09T12:03:14.371Z,40.61
2024-05-09T12:05:44.471Z,39.81
2024-05-09T12:08:12.493Z,35.79
2024-05-09T12:10:41.084Z,40.40
2024-05-09T12:13:08.612Z,41.09
2024-05-09T12:15:38.567Z,36.24
2024-05-09T12:18:07.570Z,38.94
2024-05-09T12:20:38.510Z,37.20
2024-05-09T12:23:08.262Z,39.07
2024-05-09T12:25:36.509Z,39.15
2024-05-09T12:28:03.612Z,37.10
2024-05-09T12:30:36.939Z,38.05
2024-05-09T12:33:17.856Z,40.94
2024-05-09T12:35:48.158Z,36.76
2024-05-09T12:38:16.842Z,40.25
2024-05-09T12:40:43.766Z,38.70
2024-05-09T12:43:11.505Z,41.74
2024-05-09T12:45:40.495Z,41.87
2024-05-09T12:48:09.679Z,40.90
2024-05-09T12:50:39.346Z,40.96
2024-05-09T12:53:06.536Z,39.57
2024-05-09T12:55:41.244Z,43.01
2024-05-09T12:58:18.627Z,44.00
2024-05-09T13:00:46.183Z,39.05
2024-05-09T13:03:13.411Z,39.87
2024-05-09T13:05:40.319Z,41.50
2024-05-09T13:08:09.206Z,36.43
2024-05-09T13:10:36.368Z,36.52
2024-05-09T13:13:03.151Z,38.09
2024-05-09T13:15:31.298Z,38.81
2024-05-09T13:18:01.950Z,39.88
2024-05-09T13:20:33.877Z,40.25
2024-05-09T13:23:07.681Z,38.54
2024-05-09T13:25:35.461Z,37.04
2024-05-09T13:28:06.574Z,37.94
2024-05-09T13:30:39.753Z,39.98
2024-05-09T13:33:12.603Z,37.04
2024-05-09T13:35:46.655Z,39.49
2024-05-09T13:38:17.662Z,41.09
2024-05-09T13:40:45.572Z,41.35
2024-05-09T13:43:13.038Z,41.03
2024-05-09T13:45:39.822Z,41.60
2024-05-09T13:48:07.329Z,43.26
2024-05-09T13:50:36.602Z,42.73
2024-05-09T13:53:06.121Z,42.15
2024-05-09T13:55:34.092Z,39.43
2024-05-09T13:58:01.664Z,40.44
2024-05-09T14:00:42.044Z,36.33
2024-05-09T14:03:15.117Z,35.54
2024-05-09T14:05:42.435Z,35.47
2024-05-09T14:08:09.575Z,37.03
2024-05-09T14:10:36.830Z,36.02
2024-05-09T14:13:03.713Z,35.30
2024-05-09T14:15:30.658Z,36.88
2024-05-09T14:17:57.469Z,40.45
2024-05-09T14:20:30.844Z,37.42
2024-05-09T14:23:01.893Z,39.44
2024-05-09T14:25:29.719Z,38.88
2024-05-09T14:28:00.914Z,40.72
2024-05-09T14:30:34.878Z,40.75
2024-05-09T14:33:05.848Z,42.24
2024-05-09T14:35:33.719Z,45.00
2024-05-09T14:38:02.824Z,43.57
2024-05-09T14:40:40.379Z,44.32
2024-05-09T14:43:11.629Z,42.86
2024-05-09T14:45:39.648Z,41.82
2024-05-09T14:48:07.897Z,43.84
2024-05-09T14:50:38.932Z,40.80
2024-05-09T14:53:11.362Z,42.68
2024-05-09T14:55:40.196Z,40.61
2024-05-09T14:58:09.329Z,40.98
2024-05-09T15:00:44.115Z,38.51
2024-05-09T15:03:13.799Z,39.79
2024-05-09T15:05:40.700Z,39.68
2024-05-09T15:08:08.371Z,39.47
2024-05-09T15:10:36.679Z,38.77
2024-05-09T15:13:04.931Z,38.35
2024-05-09T15:15:32.392Z,37.73
2024-05-09T15:18:00.171Z,34.92
2024-05-09T15:20:33.533Z,33.49
2024-05-09T15:23:03.243Z,34.89
2024-05-09T15:25:30.396Z,35.02
2024-05-09T15:27:57.369Z,33.72
2024-05-09T15:30:30.347Z,34.13
2024-05-09T15:33:02.188Z,33.44
2024-05-09T15:35:29.305Z,34.28
2024-05-09T15:37:59.671Z,30.17
2024-05-09T15:40:35.519Z,32.77
2024-05-09T15:43:07.144Z,30.91
2024-05-09T15:45:34.823Z,32.31
2024-05-09T15:48:03.426Z,32.90
2024-05-09T15:50:37.155Z,29.04
2024-05-09T15:53:08.161Z,32.32
2024-05-09T15:55:35.780Z,32.02
2024-05-09T15:58:03.832Z,31.30
2024-05-09T16:00:38.705Z,32.02
2024-05-09T16:03:13.273Z,30.35
2024-05-09T16:05:41.571Z,32.83
2024-05-09T16:08:08.801Z,33.25
2024-05-09T16:10:37.589Z,31.32
2024-05-09T16:13:05.786Z,29.23
2024-05-09T16:15:32.577Z,32.89
2024-05-09T16:18:00.338Z,34.58
2024-05-09T16:20:35.098Z,35.15
2024-05-09T16:23:07.944Z,35.25
2024-05-09T16:25:34.865Z,33.28
2024-05-09T16:28:05.892Z,33.94
2024-05-09T16:30:36.064Z,35.60
2024-05-09T16:33:04.834Z,33.28
2024-05-09T16:35:32.217Z,36.44
2024-05-09T16:38:01.304Z,35.81
2024-05-09T16:40:36.303Z,37.84
2024-05-09T16:43:06.995Z,39.38
2024-05-09T16:45:34.622Z,40.62
2024-05-09T16:48:01.804Z,40.96
2024-05-09T16:50:33.350Z,42.63
2024-05-09T16:53:06.251Z,42.63
2024-05-09T16:55:33.801Z,43.20
2024-05-09T16:58:02.377Z,42.83
2024-05-09T17:00:38.386Z,43.45
2024-05-09T17:03:09.987Z,44.94
2024-05-09T17:05:37.624Z,45.29
2024-05-09T17:08:06.519Z,47.41
2024-05-09T17:10:35.089Z,44.28
2024-05-09T17:13:04.673Z,45.49
2024-05-09T17:15:33.100Z,46.40
2024-05-09T17:18:00.463Z,47.79
2024-05-09T17:20:33.110Z,48.25
2024-05-09T17:23:03.669Z,47.62
2024-05-09T17:25:30.605Z,48.62
2024-05-09T17:27:57.476Z,50.19
2024-05-09T17:30:29.398Z,49.75
2024-05-09T17:33:04.312Z,52.53
2024-05-09T17:35:32.239Z,52.71
2024-05-09T17:37:59.142Z,53.12
2024-05-09T17:40:32.618Z,52.34
2024-05-09T17:43:04.788Z,55.76
2024-05-09T17:45:32.513Z,55.61
2024-05-09T17:48:00.139Z,56.02
2024-05-09T17:50:34.442Z,56.79
2024-05-09T17:53:03.761Z,58.85
2024-05-09T17:55:30.881Z,57.01
2024-05-09T17:57:57.807Z,57.60
2024-05-09T18:00:36.182Z,62.02
2024-05-09T18:03:07.402Z,63.09
2024-05-09T18:05:38.192Z,60.72
2024-05-09T18:08:06.419Z,61.43
2024-05-09T18:10:37.297Z,58.79
2024-05-09T18:13:07.312Z,61.92
2024-05-09T18:15:34.505Z,63.78
2024-05-09T18:18:02.850Z,62.48
2024-05-09T18:20:38.153Z,67.57
2024-05-09T18:23:12.465Z,61.92
2024-05-09T18:25:40.164Z,67.07
2024-05-09T18:28:07.894Z,67.50
2024-05-09T18:30:36.699Z,64.96
2024-05-09T18:33:06.839Z,68.65
2024-05-09T18:35:34.819Z,70.75
2024-05-09T18:38:01.742Z,68.22
2024-05-09T18:40:34.231Z,64.91
2024-05-09T18:43:06.751Z,65.68
2024-05-09T18:45:35.320Z,68.99
2024-05-09T18:48:03.904Z,69.07
2024-05-09T18:50:35.798Z,69.34
2024-05-09T18:53:06.290Z,68.49
2024-05-09T18:55:33.157Z,68.46
2024-05-09T18:58:01.624Z,69.50
2024-05-09T19:00:34.693Z,71.71
2024-05-09T19:03:12.241Z,67.63
2024-05-09T19:05:45.374Z,73.10
2024-05-09T19:08:13.494Z,71.82
2024-05-09T19:10:40.729Z,70.57
2024-05-09T19:13:13.127Z,72.89
2024-05-09T19:15:42.374Z,74.32
2024-05-09T19:18:12.070Z,71.94
2024-05-09T19:20:39.543Z,68.78
2024-05-09T19:23:07.305Z,72.72
2024-05-09T19:25:36.065Z,69.29
2024-05-09T19:28:04.065Z,74.41
2024-05-09T19:30:38.638Z,72.54
2024-05-09T19:33:09.582Z,73.91
2024-05-09T19:35:41.157Z,74.44
2024-05-09T19:38:08.268Z,72.32
2024-05-09T19:40:35.740Z,71.67
2024-05-09T19:43:05.985Z,74.96
2024-05-09T19:45:36.222Z,74.80
2024-05-09T19:48:07.378Z,77.42
2024-05-09T19:50:43.901Z,77.82
2024-05-09T19:53:12.813Z,74.96
2024-05-09T19:55:42.534Z,77.58
2024-05-09T19:58:10.932Z,77.36
2024-05-09T20:00:41.535Z,77.91
2024-05-09T20:03:12.030Z,77.30
2024-05-09T20:05:40.386Z,78.18
2024-05-09T20:08:10.232Z,78.65
2024-05-09T20:10:38.116Z,78.71
2024-05-09T20:13:07.008Z,80.83
2024-05-09T20:15:37.373Z,79.80
2024-05-09T20:18:05.191Z,80.09
2024-05-09T20:20:37.948Z,81.12
2024-05-09T20:23:09.364Z,83.18
2024-05-09T20:25:36.157Z,81.52
2024-05-09T20:28:02.995Z,81.71
2024-05-09T20:30:32.904Z,80.68
2024-05-09T20:33:06.145Z,81.07
2024-05-09T20:35:35.271Z,82.70
2024-05-09T20:38:03.595Z,82.22
2024-05-09T20:40:35.380Z,81.28
2024-05-09T20:43:05.834Z,81.07
2024-05-09T20:45:33.223Z,81.43
2024-05-09T20:48:00.331Z,81.31
2024-05-09T20:50:36.170Z,82.33
2024-05-09T20:53:08.952Z,82.32
2024-05-09T20:55:35.595Z,82.07
2024-05-09T20:58:02.312Z,82.41
2024-05-09T21:00:38.987Z,85.22
2024-05-09T21:03:12.142Z,83.30
2024-05-09T21:05:39.491Z,83.86
2024-05-09T21:08:07.073Z,84.29
2024-05-09T21:10:35.153Z,83.76
2024-05-09T21:13:03.286Z,85.40
2024-05-09T21:15:30.677Z,85.61
2024-05-09T21:17:57.433Z,84.96
2024-05-09T21:20:30.180Z,84.54
2024-05-09T21:22:58.811Z,85.70
2024-05-09T21:25:25.640Z,86.58
2024-05-09T21:27:53.574Z,86.01
2024-05-09T21:30:32.277Z,86.45
2024-05-09T21:33:11.769Z,87.95
2024-05-09T21:35:40.753Z,88.31
2024-05-09T21:38:08.298Z,89.05
2024-05-09T21:40:36.632Z,86.75
2024-05-09T21:43:05.296Z,86.40
2024-05-09T21:45:33.462Z,83.77
2024-05-09T21:48:00.544Z,85.22
2024-05-09T21:50:35.907Z,83.00
2024-05-09T21:53:07.146Z,83.87
2024-05-09T21:55:34.349Z,83.38
2024-05-09T21:58:01.705Z,82.15
2024-05-09T22:00:36.017Z,82.69
2024-05-09T22:03:09.301Z,82.61
2024-05-09T22:05:37.849Z,83.06
2024-05-09T22:08:05.695Z,83.71
2024-05-09T22:10:36.469Z,85.53
2024-05-09T22:13:07.564Z,83.41
2024-05-09T22:15:36.440Z,83.42
2024-05-09T22:18:05.111Z,82.82
2024-05-09T22:20:37.228Z,81.77
2024-05-09T22:23:06.103Z,81.90
2024-05-09T22:25:33.147Z,79.92
2024-05-09T22:28:01.374Z,79.84
2024-05-09T22:30:35.703Z,78.36
2024-05-09T22:33:07.020Z,77.57
2024-05-09T22:35:34.023Z,78.59
2024-05-09T22:38:00.922Z,78.06
2024-05-09T22:40:38.459Z,77.75
2024-05-09T22:43:13.802Z,78.35
2024-05-09T22:45:41.037Z,77.57
2024-05-09T22:48:08.705Z,77.91
2024-05-09T22:50:36.142Z,78.04
2024-05-09T22:53:02.849Z,75.59
2024-05-09T22:55:29.994Z,75.37
2024-05-09T22:57:57.331Z,75.39
2024-05-09T23:00:31.441Z,75.45
2024-05-09T23:03:00.717Z,74.95
2024-05-09T23:05:28.545Z,75.57
2024-05-09T23:07:55.792Z,77.24
2024-05-09T23:10:31.061Z,76.18
2024-05-09T23:13:04.192Z,78.53
2024-05-09T23:15:31.091Z,79.32
2024-05-09T23:18:00.272Z,79.64
2024-05-09T23:20:36.096Z,80.22
2024-05-09T23:23:06.700Z,79.94
2024-05-09T23:25:33.538Z,81.48
2024-05-09T23:28:00.580Z,81.57
2024-05-09T23:30:34.760Z,80.92
2024-05-09T23:33:05.999Z,83.39
2024-05-09T23:35:32.769Z,85.19
2024-05-09T23:38:00.007Z,82.35
2024-05-09T23:40:35.082Z,83.81
2024-05-09T23:43:05.926Z,83.54
2024-05-09T23:45:32.746Z,85.62
2024-05-09T23:48:00.143Z,87.81
2024-05-09T23:50:34.045Z,88.56
2024-05-09T23:53:03.801Z,89.23
2024-05-09T23:55:30.463Z,91.51
2024-05-09T23:57:57.139Z,92.27
